Time;durP1;ratioP1;P1;durP2;ratioP2;P2;SDS_P1;SDS_P2;PMS_P1;PMS_P2;Temp;Humidity;BMP_temperature;BMP_pressure;BME280_temperature;BME280_humidity;BME280_pressure;Samples;Min_cycle;Max_cycle;Signal;HPM_P1;HPM_P2
2022/06/27 00:02:10;;;;;;;5.35;4.85;;;23.40;99.90;;;;;;5039490;28;20291;-72
2022/06/27 00:04:36;;;;;;;7.50;5.40;;;23.40;99.90;;;;;;5038025;28;20496;-72
2022/06/27 00:07:02;;;;;;;5.60;5.10;;;23.40;99.90;;;;;;5036044;28;20177;-73
2022/06/27 00:09:27;;;;;;;5.30;4.80;;;23.10;99.90;;;;;;5036327;28;20311;-72
2022/06/27 00:11:53;;;;;;;6.13;5.05;;;23.10;99.90;;;;;;5036433;28;20189;-73
2022/06/27 00:14:19;;;;;;;6.32;5.72;;;22.90;99.90;;;;;;5036088;28;20173;-72
2022/06/27 00:16:44;;;;;;;6.00;5.38;;;23.10;99.90;;;;;;5036654;28;20535;-72
2022/06/27 00:19:10;;;;;;;8.57;5.30;;;22.90;99.90;;;;;;5035561;28;20639;-72
2022/06/27 00:21:35;;;;;;;7.85;5.55;;;22.80;99.90;;;;;;5035669;28;20173;-73
2022/06/27 00:24:01;;;;;;;5.80;5.13;;;22.60;99.90;;;;;;5035349;28;20181;-74
2022/06/27 00:26:26;;;;;;;5.70;5.20;;;22.70;99.90;;;;;;5032737;28;20180;-73
2022/06/27 00:28:52;;;;;;;6.22;5.30;;;22.80;99.90;;;;;;5035586;28;20232;-71
2022/06/27 00:31:17;;;;;;;6.07;5.03;;;22.60;99.90;;;;;;5035316;28;20247;-73
2022/06/27 00:33:43;;;;;;;6.40;4.97;;;22.60;99.90;;;;;;5035351;28;20173;-72
2022/06/27 00:36:09;;;;;;;7.72;5.75;;;22.70;99.90;;;;;;5035249;28;20199;-72
2022/06/27 00:38:34;;;;;;;7.25;5.45;;;22.70;99.90;;;;;;5032108;28;20546;-73
2022/06/27 00:41:00;;;;;;;5.93;5.38;;;22.60;99.90;;;;;;5035330;28;20181;-72
2022/06/27 00:43:25;;;;;;;7.20;6.50;;;22.60;99.90;;;;;;5017884;28;20267;-74
2022/06/27 00:45:51;;;;;;;6.00;5.40;;;22.60;99.90;;;;;;5035815;28;20185;-74
2022/06/27 00:48:16;;;;;;;7.28;6.40;;;22.80;99.90;;;;;;5032941;28;20259;-74
2022/06/27 00:50:42;;;;;;;8.13;7.10;;;22.70;99.90;;;;;;5035951;28;20556;-73
2022/06/27 00:53:10;;;;;;;7.25;6.47;;;22.80;99.90;;;;;;5035060;28;20192;-73
2022/06/27 00:55:35;;;;;;;8.38;5.57;;;22.70;99.90;;;;;;5035701;28;20222;-74
2022/06/27 00:58:01;;;;;;;7.75;6.10;;;22.60;99.90;;;;;;5027455;28;20260;-73
2022/06/27 01:00:27;;;;;;;7.82;5.85;;;22.60;99.90;;;;;;5019351;28;20177;-74
2022/06/27 01:02:53;;;;;;;8.05;5.82;;;22.60;99.90;;;;;;5017149;28;20180;-73
2022/06/27 01:05:19;;;;;;;10.13;8.60;;;22.60;99.90;;;;;;5015797;28;20272;-74
2022/06/27 01:07:44;;;;;;;7.22;6.13;;;22.60;99.90;;;;;;4998652;28;20273;-73
2022/06/27 01:10:10;;;;;;;6.32;5.65;;;22.60;99.90;;;;;;5027237;28;20188;-73
2022/06/27 01:12:40;;;;;;;8.35;6.63;;;22.50;99.90;;;;;;5037556;28;20184;-73
2022/06/27 01:15:07;;;;;;;8.15;6.22;;;22.30;99.90;;;;;;5036995;28;20180;-74
2022/06/27 01:17:34;;;;;;;7.65;6.07;;;22.60;99.90;;;;;;5036201;28;20183;-73
2022/06/27 01:19:59;;;;;;;6.75;6.05;;;22.40;99.90;;;;;;5035763;28;20259;-72
2022/06/27 01:22:25;;;;;;;6.35;5.75;;;22.30;99.90;;;;;;5036174;28;20271;-73
2022/06/27 01:24:50;;;;;;;6.85;6.25;;;22.20;99.90;;;;;;5035417;28;20260;-72
2022/06/27 01:27:16;;;;;;;7.28;6.00;;;22.20;99.90;;;;;;5036436;28;20176;-73
2022/06/27 01:29:42;;;;;;;7.70;6.68;;;22.20;99.90;;;;;;5036063;28;20799;-74
2022/06/27 01:32:08;;;;;;;6.30;5.70;;;22.10;99.90;;;;;;5035606;28;20644;-74
2022/06/27 01:34:34;;;;;;;6.85;6.00;;;22.40;99.90;;;;;;5036563;28;20173;-73
2022/06/27 01:36:59;;;;;;;6.32;5.72;;;22.30;99.90;;;;;;5035776;28;20207;-73
2022/06/27 01:39:26;;;;;;;6.55;5.35;;;22.20;99.90;;;;;;5036373;28;20248;-73
2022/06/27 01:41:58;;;;;;;6.13;5.53;;;22.20;99.90;;;;;;5034988;28;20181;-73
2022/06/27 01:44:26;;;;;;;5.43;4.93;;;22.00;99.90;;;;;;5036001;28;20177;-75
2022/06/27 01:47:00;;;;;;;6.13;5.35;;;22.00;99.90;;;;;;5036536;28;20173;-74
2022/06/27 01:49:30;;;;;;;9.40;6.25;;;22.00;99.90;;;;;;5018272;28;20282;-71
2022/06/27 01:51:57;;;;;;;7.40;6.70;;;22.00;99.90;;;;;;5036670;28;20218;-73
2022/06/27 01:54:24;;;;;;;5.78;5.28;;;22.20;99.90;;;;;;5036177;28;20188;-73
2022/06/27 01:56:51;;;;;;;6.40;5.80;;;22.20;99.90;;;;;;5036451;28;20199;-72
2022/06/27 01:59:19;;;;;;;7.85;7.05;;;22.00;99.90;;;;;;5035675;28;20267;-74
2022/06/27 02:01:45;;;;;;;12.73;8.18;;;21.90;99.90;;;;;;5035157;28;20234;-72
2022/06/27 02:04:12;;;;;;;7.28;6.32;;;22.00;99.90;;;;;;5036502;28;20196;-73
2022/06/27 02:06:38;;;;;;;15.45;10.23;;;22.10;99.90;;;;;;5035494;28;20181;-73
2022/06/27 02:09:07;;;;;;;7.60;6.80;;;22.10;99.90;;;;;;5035223;28;20266;-74
2022/06/27 02:11:33;;;;;;;11.40;7.15;;;21.90;99.90;;;;;;5035393;28;20188;-73
2022/06/27 02:13:59;;;;;;;8.93;6.72;;;21.90;99.90;;;;;;5035747;28;20177;-73
2022/06/27 02:16:25;;;;;;;7.03;6.43;;;21.90;99.90;;;;;;5035669;28;20260;-72
2022/06/27 02:18:52;;;;;;;6.53;5.57;;;21.80;99.90;;;;;;5036232;28;20605;-73
2022/06/27 02:21:20;;;;;;;7.45;6.22;;;21.70;99.90;;;;;;5035781;28;20191;-73
2022/06/27 02:23:46;;;;;;;7.72;6.63;;;21.80;99.90;;;;;;5036159;28;20248;-72
2022/06/27 02:26:13;;;;;;;17.35;10.65;;;21.80;99.90;;;;;;5037703;28;20245;-73
2022/06/27 02:28:39;;;;;;;9.02;6.07;;;21.70;99.90;;;;;;5039483;28;20706;-72
2022/06/27 02:31:07;;;;;;;10.38;6.72;;;21.40;99.90;;;;;;5041396;28;20248;-72
2022/06/27 02:33:41;;;;;;;6.25;5.63;;;21.40;99.90;;;;;;5039010;28;20605;-73
2022/06/27 02:36:09;;;;;;;6.85;6.15;;;21.40;99.90;;;;;;5040734;28;20267;-72
2022/06/27 02:38:37;;;;;;;8.70;6.30;;;21.50;99.90;;;;;;5020452;28;20193;-72
2022/06/27 02:41:04;;;;;;;8.05;7.20;;;21.70;99.90;;;;;;5020506;28;20256;-72
2022/06/27 02:43:33;;;;;;;10.77;8.95;;;21.70;99.90;;;;;;5017722;28;20212;-72
2022/06/27 02:45:59;;;;;;;8.35;6.40;;;21.70;99.90;;;;;;5018922;28;20177;-73
2022/06/27 02:48:26;;;;;;;9.32;6.55;;;21.70;99.90;;;;;;5019023;28;20263;-73
2022/06/27 02:50:55;;;;;;;7.18;6.47;;;21.70;99.90;;;;;;5001395;28;20185;-73
2022/06/27 02:53:27;;;;;;;6.95;6.18;;;21.40;99.90;;;;;;5018006;28;20188;-73
2022/06/27 02:55:55;;;;;;;6.93;6.22;;;21.30;99.90;;;;;;5016400;28;20173;-74
2022/06/27 02:58:33;;;;;;;8.43;6.75;;;21.60;99.90;;;;;;5016529;28;20194;-72
2022/06/27 03:01:02;;;;;;;7.15;6.25;;;21.70;99.90;;;;;;5016106;28;20212;-72
2022/06/27 03:03:30;;;;;;;8.30;6.85;;;21.50;99.90;;;;;;5018378;28;20216;-73
2022/06/27 03:06:02;;;;;;;11.63;6.50;;;21.50;99.90;;;;;;5017625;28;20178;-72
2022/06/27 03:08:38;;;;;;;7.50;6.45;;;21.50;99.90;;;;;;5017637;28;20225;-74
2022/06/27 03:11:04;;;;;;;10.05;7.78;;;21.30;99.90;;;;;;5017499;28;20279;-73
2022/06/27 03:13:29;;;;;;;7.80;6.28;;;21.60;99.90;;;;;;5016286;28;20189;-74
2022/06/27 03:15:55;;;;;;;7.43;6.63;;;21.80;99.90;;;;;;5019938;28;20632;-73
2022/06/27 03:18:20;;;;;;;7.10;6.00;;;21.50;99.90;;;;;;5020595;28;20239;-72
2022/06/27 03:20:46;;;;;;;6.85;6.25;;;21.30;99.90;;;;;;5022515;28;20173;-74
2022/06/27 03:23:12;;;;;;;7.22;6.13;;;21.40;99.90;;;;;;5022110;28;20173;-73
2022/06/27 03:25:38;;;;;;;6.93;6.05;;;21.40;99.90;;;;;;5016398;28;20260;-71
2022/06/27 03:28:04;;;;;;;8.18;7.38;;;21.50;99.90;;;;;;5017635;28;20236;-72
2022/06/27 03:30:29;;;;;;;6.93;6.32;;;21.50;99.90;;;;;;5020071;28;20200;-73
2022/06/27 03:32:55;;;;;;;11.73;6.70;;;21.50;99.90;;;;;;5018872;28;20250;-73
2022/06/27 03:35:21;;;;;;;7.22;6.53;;;21.30;99.90;;;;;;5018340;28;20177;-73
2022/06/27 03:37:46;;;;;;;7.03;6.38;;;21.20;99.90;;;;;;5018717;28;20188;-72
2022/06/27 03:40:12;;;;;;;9.38;6.40;;;21.30;99.90;;;;;;5017528;28;20181;-72
2022/06/27 03:42:38;;;;;;;12.25;6.30;;;21.20;99.90;;;;;;5014864;28;20193;-73
2022/06/27 03:45:03;;;;;;;6.95;6.25;;;21.20;99.90;;;;;;5017751;28;20199;-74
2022/06/27 03:47:29;;;;;;;8.80;7.22;;;21.40;99.90;;;;;;5017627;28;20633;-73
2022/06/27 03:50:00;;;;;;;7.18;6.32;;;21.50;99.90;;;;;;5019772;28;20596;-74
2022/06/27 03:52:27;;;;;;;6.85;6.15;;;21.50;99.90;;;;;;5002588;28;20186;-73
2022/06/27 03:54:52;;;;;;;7.43;6.72;;;21.60;99.90;;;;;;5020465;28;20558;-73
2022/06/27 03:57:18;;;;;;;7.30;6.47;;;21.80;99.90;;;;;;5021311;28;20220;-73
2022/06/27 03:59:44;;;;;;;7.35;6.35;;;21.80;99.90;;;;;;5020442;28;20252;-73
2022/06/27 04:02:09;;;;;;;7.32;6.63;;;21.80;99.90;;;;;;5021267;28;20180;-73
2022/06/27 04:04:35;;;;;;;7.30;6.60;;;21.80;99.90;;;;;;5022047;28;20178;-73
2022/06/27 04:07:02;;;;;;;7.13;6.43;;;21.80;99.90;;;;;;5021286;28;20269;-74
2022/06/27 04:09:28;;;;;;;10.18;6.43;;;21.90;99.90;;;;;;5019065;28;20224;-72
2022/06/27 04:11:54;;;;;;;6.90;6.20;;;21.60;99.90;;;;;;5020407;28;20219;-73
2022/06/27 04:14:19;;;;;;;7.25;6.55;;;21.70;99.90;;;;;;5024972;28;20182;-71
2022/06/27 04:16:45;;;;;;;6.22;5.63;;;21.60;99.90;;;;;;5023280;28;20180;-72
2022/06/27 04:19:10;;;;;;;7.05;6.30;;;21.80;99.90;;;;;;5020436;28;20184;-72
2022/06/27 04:21:36;;;;;;;7.75;5.97;;;21.70;99.90;;;;;;5022997;28;20173;-74
2022/06/27 04:24:02;;;;;;;7.18;6.43;;;22.00;99.90;;;;;;5022739;28;20173;-73
2022/06/27 04:26:28;;;;;;;6.93;6.22;;;22.20;99.90;;;;;;5021420;28;20189;-72
2022/06/27 04:28:54;;;;;;;7.18;6.30;;;22.10;99.90;;;;;;5021015;28;20653;-72
2022/06/27 04:31:20;;;;;;;7.80;7.05;;;21.90;99.90;;;;;;5023877;28;20242;-73
2022/06/27 04:33:45;;;;;;;8.95;6.63;;;21.80;99.90;;;;;;5026141;28;20188;-72
2022/06/27 04:36:12;;;;;;;6.80;6.20;;;22.00;99.90;;;;;;5021615;28;20189;-73
2022/06/27 04:38:38;;;;;;;7.00;6.28;;;22.10;99.90;;;;;;5022670;28;20193;-73
2022/06/27 04:41:05;;;;;;;7.05;6.35;;;22.30;99.90;;;;;;5022836;28;20185;-74
2022/06/27 04:43:34;;;;;;;6.30;5.63;;;22.20;99.90;;;;;;5031679;28;20188;-71
2022/06/27 04:46:01;;;;;;;10.75;6.60;;;22.30;99.90;;;;;;5043068;28;20251;-72
2022/06/27 04:48:27;;;;;;;6.82;6.07;;;22.30;99.90;;;;;;5042618;28;20604;-72
2022/06/27 04:50:53;;;;;;;7.78;6.10;;;22.50;99.90;;;;;;5042550;28;20205;-73
2022/06/27 04:53:19;;;;;;;6.95;6.32;;;22.60;99.90;;;;;;5042693;28;20323;-73
2022/06/27 04:55:46;;;;;;;7.05;5.90;;;22.70;99.90;;;;;;5042690;28;20185;-72
2022/06/27 04:58:12;;;;;;;6.63;6.00;;;22.70;99.90;;;;;;5042548;28;20187;-72
2022/06/27 05:00:38;;;;;;;7.00;6.30;;;22.70;99.90;;;;;;5024583;28;20186;-72
2022/06/27 05:03:03;;;;;;;10.10;5.65;;;22.60;99.90;;;;;;5024515;28;20181;-72
2022/06/27 05:05:29;;;;;;;6.00;5.45;;;22.70;99.90;;;;;;5018069;28;20653;-72
2022/06/27 05:07:57;;;;;;;9.32;5.45;;;22.80;99.90;;;;;;5015811;28;20285;-73
2022/06/27 05:10:22;;;;;;;6.95;6.25;;;22.90;99.90;;;;;;5032430;28;20188;-73
2022/06/27 05:12:48;;;;;;;7.80;5.82;;;23.10;99.90;;;;;;5022573;28;20200;-72
2022/06/27 05:15:13;;;;;;;11.50;6.45;;;23.10;99.90;;;;;;5022127;28;20182;-72
2022/06/27 05:17:39;;;;;;;8.32;6.07;;;23.20;99.90;;;;;;5022128;28;20177;-71
2022/06/27 05:20:06;;;;;;;8.82;6.68;;;23.20;99.90;;;;;;5023750;28;20224;-73
2022/06/27 05:22:32;;;;;;;6.50;5.78;;;23.30;99.90;;;;;;5024435;28;20189;-72
2022/06/27 05:24:58;;;;;;;8.55;6.30;;;23.40;99.90;;;;;;5023478;28;20177;-72
2022/06/27 05:27:23;;;;;;;11.07;6.13;;;23.50;99.90;;;;;;5020521;28;20193;-74
2022/06/27 05:29:50;;;;;;;5.75;5.25;;;23.60;99.90;;;;;;5027251;28;20244;-73
2022/06/27 05:32:15;;;;;;;10.82;5.65;;;23.40;99.90;;;;;;5023917;28;20192;-71
2022/06/27 05:34:41;;;;;;;10.05;6.03;;;23.70;99.90;;;;;;5022968;28;20177;-72
2022/06/27 05:37:08;;;;;;;5.30;4.80;;;23.70;99.90;;;;;;5023461;28;20204;-73
2022/06/27 05:39:34;;;;;;;7.03;5.72;;;23.70;99.90;;;;;;5023045;28;20587;-72
2022/06/27 05:42:00;;;;;;;6.55;5.07;;;23.80;99.90;;;;;;5024030;28;20182;-72
2022/06/27 05:44:27;;;;;;;8.13;5.55;;;23.80;99.90;;;;;;5024343;28;20201;-73
2022/06/27 05:46:55;;;;;;;6.82;5.30;;;23.90;99.90;;;;;;5023985;28;20181;-72
2022/06/27 05:49:22;;;;;;;5.55;5.05;;;23.90;99.90;;;;;;5025281;28;20224;-73
2022/06/27 05:51:47;;;;;;;6.43;5.18;;;24.10;99.90;;;;;;5030162;28;20189;-74
2022/06/27 05:54:14;;;;;;;6.05;5.45;;;24.00;99.90;;;;;;5040630;28;20298;-72
2022/06/27 05:56:39;;;;;;;7.78;5.40;;;24.10;99.90;;;;;;5028810;28;20186;-73
2022/06/27 05:59:06;;;;;;;6.85;5.57;;;24.10;99.90;;;;;;5023466;28;20283;-73
2022/06/27 06:01:31;;;;;;;9.13;5.57;;;24.30;99.90;;;;;;5022143;28;20196;-72
2022/06/27 06:03:57;;;;;;;9.50;4.97;;;24.40;99.90;;;;;;5018118;28;20173;-74
2022/06/27 06:06:25;;;;;;;7.97;5.03;;;24.50;99.90;;;;;;5022991;28;20177;-71
2022/06/27 06:08:51;;;;;;;6.07;4.38;;;24.60;99.90;;;;;;5042688;28;20220;-72
2022/06/27 06:11:17;;;;;;;5.75;5.18;;;24.80;99.90;;;;;;5021504;28;20192;-73
2022/06/27 06:13:43;;;;;;;7.13;5.03;;;24.70;99.90;;;;;;5022180;28;20688;-72
2022/06/27 06:16:09;;;;;;;5.30;4.63;;;25.00;99.90;;;;;;5022639;28;20188;-73
2022/06/27 06:18:35;;;;;;;5.20;4.72;;;25.10;99.90;;;;;;5021845;28;20185;-74
2022/06/27 06:21:00;;;;;;;5.35;4.60;;;25.20;99.90;;;;;;5022590;28;20178;-72
2022/06/27 06:23:27;;;;;;;4.88;4.38;;;25.50;99.90;;;;;;5035298;28;20200;-73
2022/06/27 06:25:53;;;;;;;4.55;4.15;;;25.60;99.90;;;;;;5040086;28;20177;-73
2022/06/27 06:28:19;;;;;;;4.35;3.95;;;25.60;99.90;;;;;;5039970;28;20655;-72
2022/06/27 06:30:45;;;;;;;4.55;3.60;;;25.70;99.90;;;;;;5042028;28;20245;-74
2022/06/27 06:33:10;;;;;;;6.15;4.10;;;26.00;99.90;;;;;;5041466;28;20196;-73
2022/06/27 06:35:36;;;;;;;4.82;4.05;;;26.00;99.90;;;;;;5040787;28;20597;-73
2022/06/27 06:38:03;;;;;;;4.57;4.03;;;26.10;99.90;;;;;;5041392;28;20505;-74
2022/06/27 06:40:29;;;;;;;5.32;3.78;;;26.50;99.90;;;;;;5040554;28;20199;-72
2022/06/27 06:42:55;;;;;;;6.70;4.53;;;26.60;99.90;;;;;;5040235;28;20273;-73
2022/06/27 06:45:21;;;;;;;5.68;3.72;;;26.80;99.90;;;;;;5036812;28;20191;-74
2022/06/27 06:47:49;;;;;;;4.40;3.70;;;26.80;99.90;;;;;;5041357;28;20187;-73
2022/06/27 06:50:18;;;;;;;9.98;3.38;;;27.10;99.90;;;;;;5040986;28;20181;-74
2022/06/27 06:52:46;;;;;;;7.65;3.65;;;27.10;99.90;;;;;;5040116;28;20188;-73
2022/06/27 06:55:12;;;;;;;3.80;3.40;;;27.20;99.90;;;;;;5040458;28;20165;-74
2022/06/27 06:57:38;;;;;;;3.95;3.60;;;27.40;99.90;;;;;;5039932;28;20173;-74
2022/06/27 07:00:05;;;;;;;3.42;3.10;;;27.60;99.90;;;;;;5030728;28;20186;-74
2022/06/27 07:02:31;;;;;;;5.07;3.33;;;27.60;99.90;;;;;;5019043;28;20213;-74
2022/06/27 07:04:58;;;;;;;3.65;3.35;;;27.60;99.90;;;;;;5017509;28;20208;-74
2022/06/27 07:07:25;;;;;;;7.22;3.75;;;27.70;99.90;;;;;;5015292;28;20188;-75
2022/06/27 07:09:51;;;;;;;3.53;3.17;;;27.90;99.90;;;;;;5009449;28;20247;-77
2022/06/27 07:12:17;;;;;;;5.35;3.53;;;27.80;99.90;;;;;;5026707;28;20231;-75
2022/06/27 07:14:45;;;;;;;3.78;3.00;;;27.80;99.90;;;;;;5014054;28;20178;-74
2022/06/27 07:17:11;;;;;;;4.45;3.08;;;27.90;99.90;;;;;;5015546;28;20626;-75
2022/06/27 07:19:38;;;;;;;4.43;3.22;;;28.00;99.90;;;;;;5036360;28;20181;-74
2022/06/27 07:22:05;;;;;;;3.55;3.25;;;28.00;99.90;;;;;;5014635;28;20181;-75
2022/06/27 07:24:30;;;;;;;4.00;3.40;;;28.10;99.90;;;;;;5014982;28;20174;-75
2022/06/27 07:26:57;;;;;;;3.55;3.10;;;28.00;99.90;;;;;;5026417;28;20188;-73
2022/06/27 07:29:23;;;;;;;4.90;3.67;;;28.00;99.90;;;;;;5027762;28;20233;-74
2022/06/27 07:31:51;;;;;;;7.63;3.45;;;28.10;99.90;;;;;;5025979;28;20226;-74
2022/06/27 07:34:19;;;;;;;6.97;4.32;;;28.20;99.90;;;;;;5034353;28;20264;-74
2022/06/27 07:36:45;;;;;;;3.95;3.55;;;28.40;99.90;;;;;;5016788;28;20223;-75
2022/06/27 07:39:10;;;;;;;5.35;3.13;;;28.40;99.90;;;;;;5015304;28;20598;-76
2022/06/27 07:41:36;;;;;;;3.45;3.15;;;28.40;99.90;;;;;;5016463;28;20531;-76
2022/06/27 07:44:03;;;;;;;6.22;3.10;;;28.70;99.90;;;;;;5012064;28;20188;-74
2022/06/27 07:46:31;;;;;;;3.90;3.40;;;28.70;99.90;;;;;;5014492;28;20652;-75
2022/06/27 07:48:57;;;;;;;3.83;3.15;;;28.90;99.90;;;;;;5018241;28;20217;-73
2022/06/27 07:51:22;;;;;;;2.90;2.65;;;29.00;99.70;;;;;;5021761;28;20191;-74
2022/06/27 07:53:51;;;;;;;3.22;2.92;;;29.00;98.20;;;;;;5037409;28;20219;-73
2022/06/27 07:56:18;;;;;;;5.22;2.72;;;29.10;98.30;;;;;;5034568;28;20181;-74
2022/06/27 07:58:44;;;;;;;3.45;2.60;;;29.20;96.40;;;;;;5037776;28;20215;-75
2022/06/27 08:01:11;;;;;;;2.60;2.40;;;29.40;94.60;;;;;;5034452;28;20172;-74
2022/06/27 08:03:44;;;;;;;3.38;2.60;;;29.50;91.40;;;;;;5038082;28;20621;-74
2022/06/27 08:06:19;;;;;;;4.72;2.63;;;29.30;91.00;;;;;;5022839;28;20178;-74
2022/06/27 08:08:47;;;;;;;3.83;2.67;;;29.40;90.40;;;;;;5037699;28;20220;-75
2022/06/27 08:11:15;;;;;;;4.35;2.85;;;29.60;90.40;;;;;;5037133;28;20173;-75
2022/06/27 08:13:43;;;;;;;2.63;2.30;;;29.90;90.10;;;;;;5037884;28;20216;-74
2022/06/27 08:16:08;;;;;;;2.35;2.10;;;29.90;86.50;;;;;;5023703;28;20507;-77
2022/06/27 08:18:36;;;;;;;2.50;2.30;;;29.80;85.80;;;;;;5018250;28;20188;-75
2022/06/27 08:21:02;;;;;;;2.90;2.08;;;29.80;83.90;;;;;;5018155;28;20212;-75
2022/06/27 08:23:28;;;;;;;3.70;2.13;;;29.80;83.50;;;;;;5015211;28;20640;-74
2022/06/27 08:25:54;;;;;;;2.90;1.98;;;29.90;84.60;;;;;;5014320;28;20189;-73
2022/06/27 08:28:22;;;;;;;2.00;1.90;;;30.10;82.00;;;;;;5017359;28;20229;-75
2022/06/27 08:30:48;;;;;;;4.70;2.17;;;30.10;80.20;;;;;;5036029;28;20204;-75
2022/06/27 08:33:14;;;;;;;2.20;2.00;;;30.20;80.00;;;;;;5040613;28;20185;-75
2022/06/27 08:35:40;;;;;;;2.20;2.00;;;30.20;78.30;;;;;;5034352;28;20188;-76
2022/06/27 08:38:06;;;;;;;3.25;2.00;;;30.40;78.50;;;;;;5036315;28;20264;-75
2022/06/27 08:40:32;;;;;;;2.67;1.90;;;30.40;79.20;;;;;;5036662;28;20169;-75
2022/06/27 08:42:58;;;;;;;2.15;1.83;;;30.40;76.60;;;;;;5033039;28;20284;-76
2022/06/27 08:45:25;;;;;;;2.35;2.15;;;30.40;75.00;;;;;;5036570;28;20291;-78
2022/06/27 08:47:54;;;;;;;3.85;2.13;;;30.60;75.20;;;;;;5037496;28;20188;-75
2022/06/27 08:50:20;;;;;;;2.85;2.00;;;30.70;75.20;;;;;;5035776;28;20180;-72
2022/06/27 08:52:47;;;;;;;2.38;2.17;;;30.90;73.40;;;;;;5014320;28;20189;-75
2022/06/27 08:55:13;;;;;;;2.13;1.90;;;30.80;73.50;;;;;;5016186;28;20264;-75
2022/06/27 08:57:42;;;;;;;2.33;2.10;;;30.80;73.20;;;;;;5034690;28;20577;-76
2022/06/27 09:00:10;;;;;;;3.42;2.00;;;30.90;71.60;;;;;;5032613;28;20514;-76
2022/06/27 09:02:42;;;;;;;2.00;1.90;;;31.10;71.70;;;;;;5035819;28;20215;-74
2022/06/27 09:05:15;;;;;;;2.30;1.98;;;31.20;70.70;;;;;;5035920;28;20192;-74
2022/06/27 09:07:56;;;;;;;2.10;1.90;;;31.50;70.50;;;;;;5038277;28;20181;-76
2022/06/27 09:10:36;;;;;;;3.38;2.20;;;31.60;68.10;;;;;;5038940;28;20185;-75
2022/06/27 09:13:06;;;;;;;2.72;2.22;;;31.60;67.50;;;;;;5037563;28;20221;-75
2022/06/27 09:15:58;;;;;;;2.25;2.05;;;31.50;68.20;;;;;;5027374;28;20200;-76
2022/06/27 09:18:28;;;;;;;2.88;2.00;;;31.40;64.70;;;;;;5013782;28;20335;-77
2022/06/27 09:20:54;;;;;;;2.47;2.28;;;31.60;66.30;;;;;;5015436;28;20177;-76
2022/06/27 09:23:42;;;;;;;2.40;2.20;;;31.50;66.30;;;;;;5015188;28;20188;-76
2022/06/27 09:26:28;;;;;;;4.50;1.90;;;31.60;66.40;;;;;;5018307;28;20181;-75
2022/06/27 09:29:09;;;;;;;2.70;2.15;;;31.60;64.10;;;;;;5016109;28;20637;-75
2022/06/27 09:31:39;;;;;;;2.78;2.13;;;31.70;62.80;;;;;;5012535;28;20296;-77
2022/06/27 09:34:21;;;;;;;2.78;2.40;;;31.80;62.80;;;;;;5015647;28;20181;-77
2022/06/27 09:36:56;;;;;;;4.57;2.10;;;31.80;64.30;;;;;;5032777;28;20638;-76
2022/06/27 09:39:31;;;;;;;2.55;1.98;;;31.90;65.50;;;;;;5043714;28;20266;-76
2022/06/27 09:42:04;;;;;;;4.38;1.88;;;31.40;67.30;;;;;;5037236;28;20214;-76
2022/06/27 09:44:38;;;;;;;5.30;2.30;;;31.20;66.00;;;;;;5030691;28;20187;-75
2022/06/27 09:47:04;;;;;;;3.38;2.30;;;31.20;65.40;;;;;;5017425;28;20275;-77
2022/06/27 09:49:39;;;;;;;2.28;2.00;;;31.10;64.80;;;;;;5013749;28;20314;-76
2022/06/27 09:52:10;;;;;;;3.70;2.28;;;31.10;64.10;;;;;;5033226;28;20203;-75
2022/06/27 09:54:37;;;;;;;4.85;2.22;;;31.20;65.40;;;;;;5030334;28;20188;-75
2022/06/27 09:57:05;;;;;;;2.17;1.98;;;31.10;65.70;;;;;;5016334;28;20300;-75
2022/06/27 09:59:31;;;;;;;4.10;2.20;;;31.00;66.00;;;;;;5015226;28;20201;-75
2022/06/27 10:01:57;;;;;;;1.83;1.70;;;31.00;63.70;;;;;;5014914;28;20301;-76
2022/06/27 10:04:24;;;;;;;3.08;2.10;;;30.90;61.30;;;;;;5015511;28;20274;-73
2022/06/27 10:06:53;;;;;;;2.28;2.08;;;30.80;62.00;;;;;;5018332;28;20536;-74
2022/06/27 10:09:21;;;;;;;3.85;1.85;;;31.10;63.20;;;;;;5016333;28;20225;-74
2022/06/27 10:11:48;;;;;;;2.20;2.00;;;31.70;62.40;;;;;;5016004;28;20208;-75
2022/06/27 10:14:19;;;;;;;3.42;2.10;;;31.80;60.80;;;;;;5014983;28;20272;-75
2022/06/27 10:16:58;;;;;;;2.70;2.33;;;32.00;59.90;;;;;;5011748;28;20193;-74
2022/06/27 10:19:26;;;;;;;2.25;2.08;;;31.90;59.60;;;;;;5016394;28;20189;-76
2022/06/27 10:21:53;;;;;;;2.40;2.20;;;31.90;60.00;;;;;;5015227;28;20193;-75
2022/06/27 10:24:18;;;;;;;3.45;2.47;;;32.10;60.60;;;;;;5016867;28;20197;-77
2022/06/27 10:26:46;;;;;;;2.90;2.17;;;32.30;60.20;;;;;;5033051;28;20278;-78
2022/06/27 10:29:32;;;;;;;2.85;2.08;;;32.50;59.40;;;;;;5033739;28;20236;-75
2022/06/27 10:31:59;;;;;;;2.95;2.15;;;32.50;58.60;;;;;;5030278;28;20197;-75
2022/06/27 10:34:39;;;;;;;2.20;2.00;;;32.50;59.20;;;;;;5025405;28;20275;-74
2022/06/27 10:37:24;;;;;;;3.88;2.55;;;32.50;59.60;;;;;;5015999;28;20204;-76
2022/06/27 10:39:50;;;;;;;2.65;1.80;;;32.70;58.00;;;;;;5014607;28;20272;-76
2022/06/27 10:42:44;;;;;;;2.08;1.88;;;32.70;56.60;;;;;;5011590;28;20173;-76
2022/06/27 10:45:21;;;;;;;3.60;2.08;;;32.70;56.60;;;;;;5010998;28;20624;-76
2022/06/27 10:47:58;;;;;;;2.00;1.90;;;32.50;55.40;;;;;;5013186;28;20622;-75
2022/06/27 10:50:28;;;;;;;2.88;2.15;;;32.70;55.90;;;;;;5014147;28;20177;-73
2022/06/27 10:53:22;;;;;;;2.30;2.10;;;32.90;55.30;;;;;;5014605;28;20185;-75
2022/06/27 10:55:48;;;;;;;2.83;2.00;;;33.20;53.80;;;;;;5011424;28;20193;-76
2022/06/27 10:58:28;;;;;;;2.15;1.95;;;33.20;53.00;;;;;;5014385;28;20651;-75
2022/06/27 11:01:12;;;;;;;7.85;2.63;;;33.20;53.60;;;;;;5023958;28;20223;-71
2022/06/27 11:03:39;;;;;;;4.60;2.20;;;33.10;54.50;;;;;;5023865;28;20280;-71
2022/06/27 11:06:06;;;;;;;2.65;2.03;;;33.20;54.50;;;;;;5014483;28;20220;-71
2022/06/27 11:08:33;;;;;;;12.32;2.30;;;33.30;53.90;;;;;;5038641;28;20239;-71
2022/06/27 11:11:00;;;;;;;2.45;2.10;;;33.20;54.00;;;;;;5020628;28;20185;-72
2022/06/27 11:13:42;;;;;;;2.67;2.13;;;33.60;54.40;;;;;;5016999;28;20177;-72
2022/06/27 11:16:12;;;;;;;4.95;2.90;;;33.50;53.90;;;;;;5019476;28;20192;-72
2022/06/27 11:18:41;;;;;;;3.25;2.53;;;33.40;54.60;;;;;;5018665;28;20189;-71
2022/06/27 11:21:09;;;;;;;3.25;2.42;;;33.50;53.50;;;;;;5015271;28;20182;-70
2022/06/27 11:23:59;;;;;;;4.32;2.05;;;33.60;54.00;;;;;;5020525;28;20191;-71
2022/06/27 11:26:34;;;;;;;2.13;2.03;;;33.70;54.40;;;;;;5037810;28;20185;-73
2022/06/27 11:32:06;;;;;;;2.50;2.30;;;33.70;53.20;;;;;;5039057;28;20191;-71
2022/06/27 11:34:34;;;;;;;2.00;1.88;;;33.90;52.30;;;;;;5039178;28;20181;-72
2022/06/27 11:37:02;;;;;;;2.03;1.92;;;33.90;52.30;;;;;;5034444;28;20200;-72
2022/06/27 11:39:33;;;;;;;2.85;2.05;;;33.60;52.60;;;;;;5016685;28;20185;-73
2022/06/27 11:42:01;;;;;;;3.17;1.88;;;33.70;52.70;;;;;;5029505;28;20190;-72
2022/06/27 11:44:28;;;;;;;2.45;1.98;;;33.50;52.70;;;;;;5014390;28;20186;-72
2022/06/27 11:47:06;;;;;;;3.25;2.33;;;33.60;52.80;;;;;;5020011;28;20178;-73
2022/06/27 11:49:33;;;;;;;2.22;2.03;;;33.70;52.60;;;;;;5017279;28;20704;-72
2022/06/27 11:52:04;;;;;;;2.38;2.17;;;33.70;53.00;;;;;;5018269;28;20622;-71
2022/06/27 11:54:45;;;;;;;2.38;2.17;;;33.80;53.40;;;;;;5018044;28;20181;-72
2022/06/27 11:57:23;;;;;;;2.10;1.95;;;34.00;53.30;;;;;;5037435;28;20285;-70
2022/06/27 11:59:50;;;;;;;2.40;2.20;;;33.90;53.00;;;;;;5024011;28;20204;-71
2022/06/27 12:02:30;;;;;;;2.55;2.35;;;33.80;53.10;;;;;;5014308;28;20186;-74
2022/06/27 12:05:19;;;;;;;4.70;2.38;;;33.80;53.00;;;;;;5018903;28;20283;-71
2022/06/27 12:07:58;;;;;;;6.18;2.45;;;33.80;53.60;;;;;;5021268;28;20243;-73
2022/06/27 12:10:39;;;;;;;3.95;2.42;;;33.90;54.10;;;;;;5012190;28;20204;-72
2022/06/27 12:13:07;;;;;;;3.33;2.10;;;34.10;53.50;;;;;;5018245;28;20182;-71
2022/06/27 12:15:34;;;;;;;2.30;2.10;;;34.20;53.30;;;;;;5024321;28;20348;-73
2022/06/27 12:18:01;;;;;;;2.35;2.15;;;34.20;52.50;;;;;;5037877;28;20180;-72
2022/06/27 12:20:28;;;;;;;6.10;2.22;;;33.80;52.90;;;;;;5036513;28;20279;-71
2022/06/27 12:22:54;;;;;;;2.20;2.00;;;34.00;53.00;;;;;;5039749;28;20185;-70
2022/06/27 12:25:21;;;;;;;2.50;2.30;;;34.00;52.80;;;;;;5025981;28;20194;-70
2022/06/27 12:27:47;;;;;;;2.05;1.88;;;34.00;52.30;;;;;;5018156;28;20185;-71
2022/06/27 12:30:14;;;;;;;3.03;2.33;;;34.10;52.60;;;;;;5017500;28;20312;-71
2022/06/27 12:32:40;;;;;;;4.32;2.00;;;34.10;52.40;;;;;;5018760;28;20188;-72
2022/06/27 12:35:06;;;;;;;2.30;2.10;;;34.10;52.20;;;;;;5021559;28;20181;-71
2022/06/27 12:37:38;;;;;;;3.03;1.88;;;34.20;52.40;;;;;;5018420;28;20223;-72
2022/06/27 12:40:06;;;;;;;2.15;2.00;;;34.40;51.90;;;;;;5023764;28;20210;-71
2022/06/27 12:42:32;;;;;;;3.47;2.33;;;34.50;52.00;;;;;;5017690;28;20227;-71
2022/06/27 12:44:58;;;;;;;2.40;2.20;;;34.60;52.00;;;;;;5016114;28;20247;-71
2022/06/27 12:47:24;;;;;;;3.38;2.20;;;34.40;51.00;;;;;;5016378;28;20618;-70
2022/06/27 12:49:50;;;;;;;3.15;1.92;;;34.40;51.90;;;;;;5015496;28;20217;-72
2022/06/27 12:52:16;;;;;;;2.63;2.17;;;34.50;53.10;;;;;;5016240;28;20181;-71
2022/06/27 12:54:42;;;;;;;4.60;2.63;;;34.60;51.70;;;;;;5018309;28;20268;-70